createdAt,value
2017-11-04T00:01:20.714Z,29.60
2017-11-04T00:03:48.380Z,27.37
2017-11-04T00:06:15.966Z,30.03
2017-11-04T00:08:43.621Z,28.50
2017-11-04T00:11:11.234Z,27.97
2017-11-04T00:13:38.834Z,27.97
2017-11-04T00:16:06.472Z,29.23
2017-11-04T00:18:34.062Z,27.93
2017-11-04T00:21:01.734Z,28.30
2017-11-04T00:23:29.361Z,28.20
2017-11-04T00:25:56.992Z,28.40
2017-11-04T00:28:24.624Z,29.70
2017-11-04T00:30:52.239Z,28.30
2017-11-04T00:33:19.902Z,29.07
2017-11-04T00:35:47.502Z,28.70
2017-11-04T00:38:15.096Z,27.67
2017-11-04T00:40:42.726Z,28.40
2017-11-04T00:43:10.332Z,26.97
2017-11-04T00:45:37.962Z,27.53
2017-11-04T00:48:05.551Z,27.17
2017-11-04T00:50:33.139Z,27.23
2017-11-04T00:53:00.803Z,27.17
2017-11-04T00:55:28.414Z,29.10
2017-11-04T00:57:56.048Z,26.23
2017-11-04T01:00:23.661Z,26.60
2017-11-04T01:02:51.576Z,26.80
2017-11-04T01:05:19.194Z,27.00
2017-11-04T01:07:46.787Z,27.60
2017-11-04T01:10:14.436Z,26.47
2017-11-04T01:12:42.026Z,26.20
2017-11-04T01:15:09.636Z,27.80
2017-11-04T01:17:37.255Z,27.00
2017-11-04T01:20:04.854Z,26.70
2017-11-04T01:22:34.460Z,28.43
2017-11-04T01:25:02.040Z,26.87
2017-11-04T01:27:29.955Z,27.57
2017-11-04T01:29:58.507Z,27.00
2017-11-04T01:32:26.086Z,26.00
2017-11-04T01:34:53.719Z,26.77
2017-11-04T01:37:21.305Z,25.60
2017-11-04T01:39:49.172Z,25.97
2017-11-04T01:42:16.799Z,26.30
2017-11-04T01:44:44.395Z,25.90
2017-11-04T01:47:12.026Z,26.53
2017-11-04T01:49:39.607Z,26.90
2017-11-04T01:52:07.452Z,26.53
2017-11-04T01:54:35.376Z,26.07
2017-11-04T01:57:02.984Z,26.20
2017-11-04T01:59:30.623Z,25.67
2017-11-04T02:01:58.227Z,26.90
2017-11-04T02:04:25.826Z,24.97
2017-11-04T02:06:53.437Z,27.27
2017-11-04T02:09:21.031Z,26.20
2017-11-04T02:11:49.016Z,25.50
2017-11-04T02:14:16.613Z,27.23
2017-11-04T02:16:44.214Z,25.90
2017-11-04T02:19:12.106Z,26.47
2017-11-04T02:21:39.702Z,25.57
2017-11-04T02:24:07.330Z,27.03
2017-11-04T02:26:34.922Z,25.30
2017-11-04T02:29:02.536Z,26.10
2017-11-04T02:31:30.158Z,25.63
2017-11-04T02:33:57.740Z,26.03
2017-11-04T02:36:25.400Z,23.57
2017-11-04T02:38:53.005Z,26.17
2017-11-04T02:41:20.594Z,26.80
2017-11-04T02:43:48.636Z,25.50
2017-11-04T02:46:16.505Z,26.07
2017-11-04T02:48:44.136Z,25.47
2017-11-04T02:51:11.745Z,26.97
2017-11-04T02:53:39.334Z,27.00
2017-11-04T02:56:10.130Z,26.63
2017-11-04T02:58:37.717Z,27.43
2017-11-04T03:01:05.362Z,27.00
2017-11-04T03:03:32.944Z,25.20
2017-11-04T03:06:00.984Z,24.80
2017-11-04T03:08:28.604Z,27.60
2017-11-04T03:10:56.215Z,25.40
2017-11-04T03:13:24.173Z,24.90
2017-11-04T03:15:51.786Z,25.60
2017-11-04T03:18:19.718Z,24.10
2017-11-04T03:20:47.341Z,25.73
2017-11-04T03:23:14.939Z,24.37
2017-11-04T03:25:42.914Z,25.20
2017-11-04T03:28:10.778Z,26.20
2017-11-04T03:30:38.379Z,25.13
2017-11-04T03:33:06.014Z,24.80
2017-11-04T03:35:33.869Z,25.13
2017-11-04T03:38:01.500Z,25.57
2017-11-04T03:40:29.089Z,26.83
2017-11-04T03:42:56.700Z,25.90
2017-11-04T03:45:24.321Z,26.90
2017-11-04T03:47:51.909Z,25.67
2017-11-04T03:50:19.542Z,26.13
2017-11-04T03:52:47.402Z,23.77
2017-11-04T03:55:14.980Z,24.53
2017-11-04T03:57:42.605Z,25.80
2017-11-04T04:00:10.217Z,24.93
2017-11-04T04:02:38.257Z,25.73
2017-11-04T04:05:05.860Z,25.50
2017-11-04T04:07:33.498Z,25.00
2017-11-04T04:10:01.136Z,24.37
2017-11-04T04:12:28.739Z,25.80
2017-11-04T04:14:56.387Z,25.70
2017-11-04T04:17:24.242Z,25.47
2017-11-04T04:19:51.843Z,24.47
2017-11-04T04:22:19.466Z,25.97
2017-11-04T04:24:47.058Z,24.87
2017-11-04T04:27:14.692Z,24.23
2017-11-04T04:29:42.657Z,26.80
2017-11-04T04:32:10.277Z,25.10
2017-11-04T04:34:37.890Z,26.90
2017-11-04T04:37:05.504Z,26.87
2017-11-04T04:39:33.409Z,25.50
2017-11-04T04:42:01.053Z,26.53
2017-11-04T04:44:29.042Z,25.37
2017-11-04T04:46:56.625Z,26.83
2017-11-04T04:49:24.264Z,32.23
2017-11-04T04:51:51.848Z,30.10
2017-11-04T04:54:19.799Z,26.77
2017-11-04T04:56:47.436Z,26.80
2017-11-04T04:59:15.074Z,26.80
2017-11-04T05:01:42.711Z,24.97
2017-11-04T05:04:10.297Z,27.10
2017-11-04T05:06:37.882Z,25.93
2017-11-04T05:09:05.497Z,25.20
2017-11-04T05:11:33.097Z,27.63
2017-11-04T05:14:00.730Z,26.03
2017-11-04T05:16:28.317Z,26.07
2017-11-04T05:18:56.221Z,27.37
2017-11-04T05:21:23.846Z,27.10
2017-11-04T05:23:51.426Z,26.97
2017-11-04T05:26:19.071Z,24.67
2017-11-04T05:28:46.710Z,28.77
2017-11-04T05:31:14.372Z,27.10
2017-11-04T05:33:41.996Z,27.77
2017-11-04T05:36:09.614Z,28.20
2017-11-04T05:38:37.237Z,27.20
2017-11-04T05:41:05.766Z,26.10
2017-11-04T05:43:33.361Z,27.70
2017-11-04T05:46:00.981Z,28.60
2017-11-04T05:48:29.084Z,29.03
2017-11-04T05:50:57.083Z,27.73
2017-11-04T05:53:24.945Z,27.07
2017-11-04T05:55:54.407Z,27.50
2017-11-04T05:58:22.057Z,29.00
2017-11-04T06:00:49.673Z,27.47
2017-11-04T06:03:17.336Z,27.80
2017-11-04T06:05:44.929Z,25.87
2017-11-04T06:08:12.544Z,26.97
2017-11-04T06:10:40.425Z,26.80
2017-11-04T06:13:08.013Z,28.40
2017-11-04T06:15:35.674Z,28.27
2017-11-04T06:18:03.302Z,26.47
2017-11-04T06:20:31.184Z,28.20
2017-11-04T06:22:58.850Z,26.37
2017-11-04T06:25:26.480Z,26.97
2017-11-04T06:27:54.101Z,27.73
2017-11-04T06:30:22.052Z,26.80
2017-11-04T06:32:49.668Z,26.37
2017-11-04T06:35:17.324Z,27.13
2017-11-04T06:37:44.937Z,26.17
2017-11-04T06:40:12.595Z,25.93
2017-11-04T06:42:40.243Z,26.93
2017-11-04T06:45:07.866Z,26.90
2017-11-04T06:47:35.517Z,25.50
2017-11-04T06:50:03.118Z,26.67
2017-11-04T06:52:30.774Z,27.70
2017-11-04T06:54:58.366Z,26.73
2017-11-04T06:57:25.995Z,26.93
2017-11-04T06:59:53.624Z,25.87
2017-11-04T07:02:21.313Z,27.60
2017-11-04T07:04:48.974Z,27.53
2017-11-04T07:07:17.091Z,28.47
2017-11-04T07:09:44.677Z,28.30
2017-11-04T07:12:12.307Z,27.90
2017-11-04T07:14:39.940Z,27.13
2017-11-04T07:17:07.578Z,26.60
2017-11-04T07:19:35.190Z,27.10
2017-11-04T07:22:02.840Z,28.40
2017-11-04T07:24:30.501Z,27.30
2017-11-04T07:26:58.109Z,28.67
2017-11-04T07:29:25.777Z,27.60
2017-11-04T07:31:53.431Z,27.73
2017-11-04T07:34:21.404Z,28.03
2017-11-04T07:36:49.057Z,29.90
2017-11-04T07:39:16.725Z,28.90
2017-11-04T07:41:44.370Z,29.37
2017-11-04T07:44:12.003Z,29.17
2017-11-04T07:46:39.598Z,28.30
2017-11-04T07:49:07.258Z,29.33
2017-11-04T07:51:34.888Z,30.07
2017-11-04T07:54:02.547Z,30.97
2017-11-04T07:56:30.154Z,28.37
2017-11-04T07:58:57.743Z,29.87
2017-11-04T08:01:25.369Z,31.47
2017-11-04T08:03:52.997Z,30.03
2017-11-04T08:06:20.666Z,30.87
2017-11-04T08:08:48.257Z,30.53
2017-11-04T08:11:15.891Z,28.47
2017-11-04T08:13:43.524Z,26.97
2017-11-04T08:16:11.192Z,29.33
2017-11-04T08:18:39.113Z,29.70
2017-11-04T08:21:06.722Z,29.67
2017-11-04T08:23:34.334Z,29.67
2017-11-04T08:26:01.985Z,28.53
2017-11-04T08:28:29.600Z,28.33
2017-11-04T08:30:57.316Z,28.33
2017-11-04T08:33:24.927Z,28.07
2017-11-04T08:35:52.846Z,28.57
2017-11-04T08:38:20.502Z,29.37
2017-11-04T08:40:48.095Z,28.50
2017-11-04T08:43:15.995Z,29.30
2017-11-04T08:45:43.607Z,29.50
2017-11-04T08:48:11.238Z,28.23
2017-11-04T08:50:38.865Z,28.17
2017-11-04T08:53:06.815Z,27.53
2017-11-04T08:55:34.463Z,28.53
2017-11-04T08:58:02.066Z,27.70
2017-11-04T09:00:30.021Z,27.70
2017-11-04T09:02:57.647Z,28.07
2017-11-04T09:05:25.530Z,28.10
2017-11-04T09:07:53.213Z,28.87
2017-11-04T09:10:20.804Z,29.27
2017-11-04T09:12:48.417Z,27.47
2017-11-04T09:15:16.074Z,29.87
2017-11-04T09:17:43.713Z,29.40
2017-11-04T09:20:11.351Z,27.73
2017-11-04T09:22:39.041Z,28.20
2017-11-04T09:25:06.640Z,27.23
2017-11-04T09:27:34.293Z,29.83
2017-11-04T09:30:01.884Z,28.73
2017-11-04T09:32:29.519Z,29.00
2017-11-04T09:34:57.162Z,29.43
2017-11-04T09:37:24.766Z,28.60
2017-11-04T09:39:52.417Z,29.37
2017-11-04T09:42:20.023Z,29.50
2017-11-04T09:44:47.937Z,27.10
2017-11-04T09:47:15.569Z,28.90
2017-11-04T09:49:43.177Z,29.40
2017-11-04T09:52:10.809Z,26.93
2017-11-04T09:54:38.438Z,30.27
2017-11-04T09:57:06.092Z,27.30
2017-11-04T09:59:33.765Z,29.33
2017-11-04T10:02:01.354Z,28.20
2017-11-04T10:04:29.001Z,29.67
2017-11-04T10:06:56.606Z,29.70
2017-11-04T10:09:24.240Z,28.30
2017-11-04T10:11:51.909Z,29.67
2017-11-04T10:14:19.558Z,29.90
2017-11-04T10:16:47.314Z,29.70
2017-11-04T10:19:14.972Z,30.10
2017-11-04T10:21:42.646Z,29.53
2017-11-04T10:24:10.259Z,30.67
2017-11-04T10:26:37.868Z,28.87
2017-11-04T10:29:05.508Z,29.50
2017-11-04T10:31:33.167Z,30.90
2017-11-04T10:34:00.810Z,30.00
2017-11-04T10:36:28.407Z,27.77
2017-11-04T10:38:56.073Z,29.37
2017-11-04T10:41:23.714Z,37.20
2017-11-04T10:43:51.658Z,29.40
2017-11-04T10:46:19.341Z,30.30
2017-11-04T10:48:46.947Z,28.20
2017-11-04T10:51:14.585Z,28.77
2017-11-04T10:53:42.225Z,28.33
2017-11-04T10:56:09.890Z,30.40
2017-11-04T10:58:37.594Z,30.80
2017-11-04T11:01:05.216Z,29.80
2017-11-04T11:03:32.816Z,29.20
2017-11-04T11:06:01.363Z,29.93
2017-11-04T11:08:29.011Z,31.13
2017-11-04T11:10:57.269Z,33.07
2017-11-04T11:13:25.005Z,31.30
2017-11-04T11:15:52.628Z,29.80
2017-11-04T11:18:20.584Z,28.20
2017-11-04T11:20:48.198Z,28.93
2017-11-04T11:23:16.117Z,29.40
2017-11-04T11:25:43.776Z,29.27
2017-11-04T11:28:11.649Z,27.77
2017-11-04T11:30:39.306Z,30.10
2017-11-04T11:33:06.905Z,29.37
2017-11-04T11:35:34.544Z,29.07
2017-11-04T11:38:02.516Z,29.77
2017-11-04T11:40:30.174Z,29.27
2017-11-04T11:42:59.427Z,28.23
2017-11-04T11:45:27.366Z,29.40
2017-11-04T11:47:55.312Z,28.30
2017-11-04T11:50:23.066Z,34.70
2017-11-04T11:52:50.722Z,36.90
2017-11-04T11:55:19.336Z,30.57
2017-11-04T11:57:47.185Z,31.13
2017-11-04T12:00:14.845Z,31.73
2017-11-04T12:02:42.519Z,29.00
2017-11-04T12:05:10.286Z,29.30
2017-11-04T12:07:38.067Z,27.73
2017-11-04T12:10:05.745Z,27.90
2017-11-04T12:12:33.420Z,28.50
2017-11-04T12:15:01.136Z,28.27
2017-11-04T12:17:28.802Z,28.90
2017-11-04T12:19:56.417Z,27.90
2017-11-04T12:22:24.017Z,29.30
2017-11-04T12:24:51.672Z,28.43
2017-11-04T12:27:19.274Z,28.10
2017-11-04T12:29:47.208Z,28.60
2017-11-04T12:32:14.846Z,31.57
2017-11-04T12:34:42.452Z,30.17
2017-11-04T12:37:10.106Z,30.77
2017-11-04T12:39:37.738Z,31.53
2017-11-04T12:42:05.385Z,29.50
2017-11-04T12:44:33.006Z,30.50
2017-11-04T12:47:00.634Z,30.70
2017-11-04T12:49:28.292Z,30.57
2017-11-04T12:51:56.370Z,29.67
2017-11-04T12:54:24.025Z,29.53
2017-11-04T12:56:51.687Z,29.03
2017-11-04T12:59:19.305Z,29.70
2017-11-04T13:01:47.742Z,28.00
2017-11-04T13:04:15.421Z,30.10
2017-11-04T13:06:43.077Z,31.00
2017-11-04T13:09:10.706Z,33.87
2017-11-04T13:11:38.370Z,32.37
2017-11-04T13:14:06.012Z,28.50
2017-11-04T13:16:33.621Z,35.20
2017-11-04T13:19:01.289Z,32.30
2017-11-04T13:21:28.912Z,34.03
2017-11-04T13:23:56.576Z,30.20
2017-11-04T13:26:24.230Z,28.63
2017-11-04T13:28:51.886Z,29.50
2017-11-04T13:31:19.556Z,29.33
2017-11-04T13:33:47.178Z,28.93
2017-11-04T13:36:14.789Z,27.70
2017-11-04T13:38:42.452Z,27.73
2017-11-04T13:41:10.359Z,28.40
2017-11-04T13:43:38.029Z,27.57
2017-11-04T13:48:39.498Z,26.90
2017-11-04T13:51:07.126Z,25.47
2017-11-04T13:53:34.749Z,26.20
2017-11-04T13:56:02.395Z,26.30
2017-11-04T13:58:30.005Z,25.63
2017-11-04T14:00:57.682Z,27.80
2017-11-04T14:03:25.364Z,25.27
2017-11-04T14:05:52.976Z,25.80
2017-11-04T14:08:20.896Z,26.10
2017-11-04T14:10:48.565Z,27.90
2017-11-04T14:13:16.239Z,26.70
2017-11-04T14:15:43.910Z,26.37
2017-11-04T14:18:11.572Z,26.00
2017-11-04T14:20:39.528Z,26.90
2017-11-04T14:23:07.149Z,25.60
2017-11-04T14:25:34.863Z,27.30
2017-11-04T14:28:02.531Z,25.00
2017-11-04T14:30:30.135Z,25.83
2017-11-04T14:32:57.773Z,25.47
2017-11-04T14:35:25.437Z,28.30
2017-11-04T14:37:53.469Z,27.27
2017-11-04T14:40:21.131Z,25.90
2017-11-04T14:42:49.114Z,27.33
2017-11-04T14:45:16.775Z,24.70
2017-11-04T14:47:44.430Z,25.27
2017-11-04T14:50:12.092Z,28.07
2017-11-04T14:52:39.818Z,27.43
2017-11-04T14:55:07.441Z,27.10
2017-11-04T14:57:35.386Z,26.77
2017-11-04T15:00:03.062Z,26.40
2017-11-04T15:02:30.793Z,25.90
2017-11-04T15:04:58.414Z,27.10
2017-11-04T15:07:26.026Z,25.53
2017-11-04T15:09:53.676Z,26.10
2017-11-04T15:12:21.286Z,26.90
2017-11-04T15:14:48.930Z,25.63
2017-11-04T15:17:16.588Z,26.33
2017-11-04T15:19:44.195Z,26.37
2017-11-04T15:22:11.851Z,24.90
2017-11-04T15:24:39.454Z,25.00
2017-11-04T15:27:07.097Z,25.50
2017-11-04T15:29:35.108Z,26.20
2017-11-04T15:32:02.802Z,26.57
2017-11-04T15:34:30.471Z,25.30
2017-11-04T15:36:58.124Z,26.07
2017-11-04T15:39:26.084Z,25.87
2017-11-04T15:41:53.756Z,24.87
2017-11-04T15:44:21.421Z,24.90
2017-11-04T15:46:49.149Z,25.47
2017-11-04T15:49:16.769Z,25.47
2017-11-04T15:51:48.389Z,25.60
2017-11-04T15:54:15.998Z,25.83
2017-11-04T15:56:43.912Z,25.53
2017-11-04T15:59:11.738Z,25.13
2017-11-04T16:01:39.345Z,23.60
2017-11-04T16:04:06.996Z,26.70
2017-11-04T16:06:34.615Z,26.83
2017-11-04T16:09:02.739Z,25.90
2017-11-04T16:11:30.401Z,24.43
2017-11-04T16:13:58.012Z,25.70
2017-11-04T16:16:25.673Z,27.83
2017-11-04T16:18:53.288Z,25.73
2017-11-04T16:21:20.890Z,25.40
2017-11-04T16:23:48.562Z,25.40
2017-11-04T16:26:16.187Z,24.37
2017-11-04T16:28:43.859Z,26.40
2017-11-04T16:31:11.496Z,26.13
2017-11-04T16:33:39.101Z,23.83
2017-11-04T16:36:06.756Z,25.60
2017-11-04T16:38:34.373Z,25.10
2017-11-04T16:41:02.014Z,25.20
2017-11-04T16:43:29.641Z,25.50
2017-11-04T16:45:57.573Z,25.43
2017-11-04T16:48:25.549Z,25.17
2017-11-04T16:50:53.154Z,25.30
2017-11-04T16:53:20.822Z,24.70
2017-11-04T16:55:48.430Z,25.10
2017-11-04T16:58:16.899Z,24.60
2017-11-04T17:00:44.556Z,24.20
2017-11-04T17:03:12.209Z,26.83
2017-11-04T17:05:39.887Z,26.10
2017-11-04T17:08:07.685Z,25.00
2017-11-04T17:10:35.551Z,25.23
2017-11-04T17:13:03.234Z,25.13
2017-11-04T17:15:30.991Z,25.17
2017-11-04T17:17:58.645Z,26.83
2017-11-04T17:20:26.302Z,25.57
2017-11-04T17:22:54.031Z,36.50
2017-11-04T17:25:21.652Z,27.17
2017-11-04T17:27:49.265Z,26.97
2017-11-04T17:30:17.003Z,24.90
2017-11-04T17:32:44.676Z,25.70
2017-11-04T17:35:12.581Z,25.43
2017-11-04T17:37:40.245Z,27.50
2017-11-04T17:40:07.871Z,24.30
2017-11-04T17:42:35.533Z,24.90
2017-11-04T17:45:03.166Z,25.23
2017-11-04T17:47:30.894Z,25.63
2017-11-04T17:49:58.529Z,27.90
2017-11-04T17:52:26.194Z,25.20
2017-11-04T17:54:53.871Z,25.70
2017-11-04T17:57:21.523Z,26.03
2017-11-04T17:59:49.143Z,27.27
2017-11-04T18:02:16.805Z,26.70
2017-11-04T18:04:44.428Z,25.80
2017-11-04T18:07:12.673Z,25.13
2017-11-04T18:09:40.331Z,26.30
2017-11-04T18:12:07.937Z,26.70
2017-11-04T18:14:35.576Z,26.07
2017-11-04T18:17:03.230Z,26.27
2017-11-04T18:19:30.875Z,27.13
2017-11-04T18:21:58.812Z,26.13
2017-11-04T18:24:26.409Z,25.93
2017-11-04T18:26:54.072Z,27.13
2017-11-04T18:29:21.688Z,27.00
2017-11-04T18:31:49.485Z,28.60
2017-11-04T18:34:17.112Z,26.00
2017-11-04T18:36:44.719Z,26.00
2017-11-04T18:39:12.358Z,27.17
2017-11-04T18:41:39.968Z,26.17
2017-11-04T18:44:07.961Z,25.47
2017-11-04T18:46:35.588Z,27.30
2017-11-04T18:49:03.210Z,26.63
2017-11-04T18:51:30.854Z,27.30
2017-11-04T18:53:59.001Z,26.80
2017-11-04T18:56:26.648Z,27.67
2017-11-04T18:58:54.272Z,26.87
2017-11-04T19:01:21.957Z,27.80
2017-11-04T19:03:49.577Z,27.00
2017-11-04T19:06:17.205Z,25.73
2017-11-04T19:08:44.808Z,26.83
2017-11-04T19:11:12.766Z,25.23
2017-11-04T19:13:40.361Z,27.23
2017-11-04T19:16:07.997Z,26.30
2017-11-04T19:18:35.654Z,26.00
2017-11-04T19:21:03.290Z,26.10
2017-11-04T19:23:30.918Z,27.70
2017-11-04T19:25:58.552Z,29.17
2017-11-04T19:28:26.148Z,26.17
2017-11-04T19:30:53.803Z,28.37
2017-11-04T19:33:21.532Z,30.07
2017-11-04T19:35:49.149Z,27.10
2017-11-04T19:38:16.789Z,26.73
2017-11-04T19:40:44.436Z,25.63
2017-11-04T19:43:12.106Z,27.00
2017-11-04T19:45:39.713Z,25.73
2017-11-04T19:48:07.343Z,27.67
2017-11-04T19:50:35.012Z,28.37
2017-11-04T19:53:02.628Z,27.20
2017-11-04T19:55:30.297Z,25.37
2017-11-04T19:57:57.889Z,25.10
2017-11-04T20:00:25.484Z,26.53
2017-11-04T20:02:53.150Z,25.30
2017-11-04T20:05:21.049Z,26.70
2017-11-04T20:07:48.700Z,26.17
2017-11-04T20:10:16.310Z,26.23
2017-11-04T20:12:43.940Z,25.97
2017-11-04T20:15:11.591Z,27.67
2017-11-04T20:17:39.209Z,24.47
2017-11-04T20:20:07.445Z,26.03
2017-11-04T20:22:35.056Z,25.30
2017-11-04T20:25:02.676Z,27.10
2017-11-04T20:27:30.332Z,25.87
2017-11-04T20:29:58.004Z,25.50
2017-11-04T20:32:25.652Z,26.00
2017-11-04T20:34:53.245Z,26.53
2017-11-04T20:37:20.881Z,24.67
2017-11-04T20:39:48.531Z,25.30
2017-11-04T20:42:16.150Z,26.70
2017-11-04T20:44:44.068Z,26.60
2017-11-04T20:47:12.462Z,26.80
2017-11-04T20:49:40.423Z,25.17
2017-11-04T20:52:08.103Z,25.93
2017-11-04T20:54:36.060Z,26.50
2017-11-04T20:57:03.715Z,24.73
2017-11-04T20:59:32.531Z,27.90
2017-11-04T21:02:00.153Z,27.53
2017-11-04T21:04:27.786Z,25.70
2017-11-04T21:06:56.123Z,26.60
2017-11-04T21:09:23.814Z,26.13
2017-11-04T21:11:51.434Z,25.70
2017-11-04T21:14:19.037Z,25.87
2017-11-04T21:16:46.696Z,26.07
2017-11-04T21:19:14.321Z,27.77
2017-11-04T21:21:41.993Z,26.30
2017-11-04T21:24:09.633Z,25.07
2017-11-04T21:26:37.274Z,26.10
2017-11-04T21:29:04.970Z,26.60
2017-11-04T21:31:32.622Z,27.53
2017-11-04T21:34:00.253Z,26.20
2017-11-04T21:36:27.849Z,28.53
2017-11-04T21:38:55.705Z,26.30
2017-11-04T21:41:23.391Z,27.10
2017-11-04T21:43:51.257Z,27.30
2017-11-04T21:46:18.903Z,27.50
2017-11-04T21:48:46.530Z,25.13
2017-11-04T21:51:14.157Z,27.73
2017-11-04T21:53:42.115Z,27.50
2017-11-04T21:56:09.750Z,27.60
2017-11-04T21:58:37.817Z,28.27
2017-11-04T22:01:06.706Z,24.90
2017-11-04T22:03:34.304Z,27.17
2017-11-04T22:06:01.985Z,26.73
2017-11-04T22:08:29.579Z,26.50
2017-11-04T22:10:57.241Z,29.60
2017-11-04T22:13:24.836Z,26.50
2017-11-04T22:15:52.482Z,27.23
2017-11-04T22:18:20.139Z,27.70
2017-11-04T22:20:47.828Z,27.93
2017-11-04T22:23:15.499Z,28.63
2017-11-04T22:25:43.123Z,27.17
2017-11-04T22:28:10.816Z,27.03
2017-11-04T22:30:38.537Z,27.17
2017-11-04T22:33:06.149Z,26.30
2017-11-04T22:35:33.802Z,28.00
2017-11-04T22:38:01.448Z,26.20
2017-11-04T22:40:29.085Z,26.80
2017-11-04T22:42:56.746Z,27.80
2017-11-04T22:45:25.660Z,26.30
2017-11-04T22:47:53.335Z,28.20
2017-11-04T22:50:20.978Z,27.60
2017-11-04T22:52:48.588Z,28.10
2017-11-04T22:55:16.213Z,26.13
2017-11-04T22:57:43.863Z,27.70
2017-11-04T23:00:11.522Z,27.30
2017-11-04T23:02:39.153Z,27.07
2017-11-04T23:05:06.750Z,29.47
2017-11-04T23:07:34.382Z,28.60
2017-11-04T23:10:01.987Z,27.67
2017-11-04T23:12:29.629Z,29.40
2017-11-04T23:14:57.245Z,26.87
2017-11-04T23:17:24.888Z,26.17
2017-11-04T23:19:52.517Z,29.23
2017-11-04T23:22:20.124Z,27.80
2017-11-04T23:24:47.748Z,28.43
2017-11-04T23:27:15.332Z,28.07
2017-11-04T23:29:43.229Z,27.50
2017-11-04T23:32:10.861Z,26.93
2017-11-04T23:34:38.464Z,25.67
2017-11-04T23:37:06.105Z,27.70
2017-11-04T23:39:33.702Z,26.60
2017-11-04T23:42:01.309Z,27.00
2017-11-04T23:44:28.929Z,27.60
2017-11-04T23:46:56.525Z,29.43
2017-11-04T23:49:24.172Z,25.97
2017-11-04T23:51:51.775Z,27.57
2017-11-04T23:54:19.378Z,27.43
2017-11-04T23:56:47.016Z,27.63
2017-11-04T23:59:14.631Z,27.80
